createdAt,value
2023-10-04T00:01:44.773Z,8.52
2023-10-04T00:06:47.948Z,8.38
2023-10-04T00:11:49.849Z,8.40
2023-10-04T00:16:52.470Z,8.82
2023-10-04T00:21:54.322Z,8.48
2023-10-04T00:26:56.182Z,8.45
2023-10-04T00:31:58.168Z,8.32
2023-10-04T00:37:00.172Z,8.70
2023-10-04T00:42:02.169Z,8.45
2023-10-04T00:47:06.701Z,8.82
2023-10-04T00:52:09.654Z,8.15
2023-10-04T00:57:12.132Z,8.02
2023-10-04T01:02:14.509Z,8.43
2023-10-04T01:07:17.930Z,8.13
2023-10-04T01:12:23.845Z,8.35
2023-10-04T01:17:29.333Z,8.10
2023-10-04T01:22:33.180Z,8.40
2023-10-04T01:27:40.016Z,8.25
2023-10-04T01:32:42.012Z,8.20
2023-10-04T01:37:43.907Z,8.02
2023-10-04T01:42:47.007Z,7.82
2023-10-04T01:47:50.573Z,8.48
2023-10-04T01:52:52.487Z,8.05
2023-10-04T01:57:54.337Z,8.55
2023-10-04T02:02:56.343Z,7.97
2023-10-04T02:08:01.108Z,8.70
2023-10-04T02:13:08.212Z,8.50
2023-10-04T02:18:10.308Z,8.13
2023-10-04T02:23:13.262Z,8.20
2023-10-04T02:28:25.232Z,8.73
2023-10-04T02:33:39.852Z,8.55
2023-10-04T02:38:42.514Z,8.50
2023-10-04T02:43:44.526Z,8.80
2023-10-04T02:48:48.946Z,8.80
2023-10-04T02:53:51.274Z,8.65
2023-10-04T02:58:53.302Z,8.18
2023-10-04T03:03:55.275Z,8.70
2023-10-04T03:09:00.084Z,8.00
2023-10-04T03:14:03.633Z,8.50
2023-10-04T03:19:08.801Z,8.70
2023-10-04T03:24:12.116Z,8.13
2023-10-04T03:29:17.133Z,7.95
2023-10-04T03:34:19.600Z,8.02
2023-10-04T03:39:27.334Z,8.32
2023-10-04T03:44:30.401Z,8.38
2023-10-04T03:49:33.752Z,8.40
2023-10-04T03:54:37.661Z,7.93
2023-10-04T03:59:40.092Z,7.70
2023-10-04T04:04:42.671Z,8.30
2023-10-04T04:09:45.675Z,8.63
2023-10-04T04:14:47.668Z,8.40
2023-10-04T04:19:53.600Z,7.80
2023-10-04T04:24:56.502Z,7.90
2023-10-04T04:29:58.407Z,7.60
2023-10-04T04:35:00.536Z,7.97
2023-10-04T04:40:03.528Z,8.30
2023-10-04T04:45:23.408Z,8.07
2023-10-04T04:50:26.689Z,8.07
2023-10-04T04:55:29.855Z,7.93
2023-10-04T05:00:35.210Z,9.07
2023-10-04T05:05:38.347Z,8.82
2023-10-04T05:10:41.222Z,8.27
2023-10-04T05:15:44.040Z,9.65
2023-10-04T05:20:51.462Z,9.90
2023-10-04T05:25:55.031Z,10.18
2023-10-04T05:30:57.266Z,9.25
2023-10-04T05:36:01.445Z,9.70
2023-10-04T05:41:04.989Z,9.18
2023-10-04T05:46:08.494Z,9.45
2023-10-04T05:51:10.666Z,9.30
2023-10-04T05:56:12.517Z,9.80
2023-10-04T06:01:19.103Z,10.50
2023-10-04T06:06:21.437Z,9.93
2023-10-04T06:11:23.317Z,9.23
2023-10-04T06:16:25.222Z,9.70
2023-10-04T06:21:27.338Z,9.85
2023-10-04T06:26:29.221Z,9.85
2023-10-04T06:31:31.151Z,10.10
2023-10-04T06:36:33.108Z,10.95
2023-10-04T06:41:35.000Z,10.23
2023-10-04T06:46:37.597Z,10.35
2023-10-04T06:51:39.574Z,10.48
2023-10-04T06:56:41.588Z,10.25
2023-10-04T07:01:43.437Z,10.23
2023-10-04T07:06:45.479Z,10.98
2023-10-04T07:11:47.337Z,11.23
2023-10-04T07:16:49.945Z,10.27
2023-10-04T07:21:51.803Z,11.35
2023-10-04T07:26:57.025Z,11.25
2023-10-04T07:31:59.017Z,9.60
2023-10-04T07:37:00.923Z,10.32
2023-10-04T07:42:03.517Z,11.45
2023-10-04T07:47:05.935Z,11.68
2023-10-04T07:52:08.586Z,11.30
2023-10-04T07:57:11.281Z,11.25
2023-10-04T08:02:14.363Z,10.90
2023-10-04T08:07:19.538Z,10.98
2023-10-04T08:12:21.553Z,10.80
2023-10-04T08:17:25.185Z,11.20
2023-10-04T08:22:27.121Z,11.30
2023-10-04T08:27:29.277Z,11.10
2023-10-04T08:32:31.707Z,11.43
2023-10-04T08:37:33.601Z,11.35
2023-10-04T08:42:36.740Z,11.55
2023-10-04T08:47:40.218Z,12.00
2023-10-04T08:52:43.521Z,12.15
2023-10-04T08:57:45.909Z,11.80
2023-10-04T09:02:47.847Z,11.70
2023-10-04T09:07:51.525Z,11.75
2023-10-04T09:12:59.584Z,12.65
2023-10-04T09:18:04.400Z,13.45
2023-10-04T09:23:17.451Z,13.13
2023-10-04T09:28:19.729Z,13.07
2023-10-04T09:33:29.938Z,13.25
2023-10-04T09:38:33.059Z,13.60
2023-10-04T09:43:37.239Z,13.18
2023-10-04T09:48:46.228Z,13.50
2023-10-04T09:53:48.454Z,14.15
2023-10-04T09:58:54.875Z,13.85
2023-10-04T10:03:58.652Z,13.32
2023-10-04T10:09:04.439Z,14.48
2023-10-04T10:14:11.133Z,14.38
2023-10-04T10:19:14.122Z,14.80
2023-10-04T10:24:16.104Z,14.55
2023-10-04T10:29:22.234Z,14.48
2023-10-04T10:34:24.227Z,14.05
2023-10-04T10:39:29.782Z,14.50
2023-10-04T10:44:36.025Z,14.50
2023-10-04T10:49:42.568Z,14.65
2023-10-04T10:54:45.513Z,14.23
2023-10-04T10:59:49.728Z,14.60
2023-10-04T11:04:53.221Z,14.05
2023-10-04T11:09:57.844Z,14.82
2023-10-04T11:14:59.853Z,14.98
2023-10-04T11:20:05.515Z,15.10
2023-10-04T11:25:09.936Z,14.60
2023-10-04T11:30:15.146Z,14.70
2023-10-04T11:35:19.982Z,14.02
2023-10-04T11:40:30.677Z,14.60
2023-10-04T11:45:33.746Z,15.10
2023-10-04T11:50:47.245Z,14.48
2023-10-04T11:55:57.949Z,14.13
2023-10-04T12:01:07.864Z,14.48
2023-10-04T12:06:10.112Z,14.82
2023-10-04T12:11:15.254Z,13.95
2023-10-04T12:16:21.626Z,15.10
2023-10-04T12:21:24.239Z,14.93
2023-10-04T12:26:27.676Z,14.90
2023-10-04T12:31:32.402Z,14.45
2023-10-04T12:36:54.464Z,14.98
2023-10-04T12:42:00.417Z,15.00
2023-10-04T12:47:03.865Z,14.48
2023-10-04T12:52:06.180Z,15.18
2023-10-04T12:57:08.158Z,14.60
2023-10-04T13:02:10.256Z,14.35
2023-10-04T13:07:12.204Z,14.82
2023-10-04T13:12:14.051Z,14.70
2023-10-04T13:17:15.929Z,15.07
2023-10-04T13:22:17.772Z,14.82
2023-10-04T13:27:19.877Z,14.82
2023-10-04T13:32:22.427Z,14.75
2023-10-04T13:37:24.467Z,14.88
2023-10-04T13:42:29.212Z,14.57
2023-10-04T13:47:31.674Z,15.00
2023-10-04T13:52:33.604Z,14.30
2023-10-04T13:57:35.512Z,14.63
2023-10-04T14:02:37.678Z,14.43
2023-10-04T14:07:40.433Z,14.10
2023-10-04T14:12:42.356Z,14.90
2023-10-04T14:17:44.313Z,14.40
2023-10-04T14:22:46.719Z,15.00
2023-10-04T14:27:49.440Z,14.93
2023-10-04T14:32:52.996Z,14.07
2023-10-04T14:37:55.071Z,14.55
2023-10-04T14:42:58.284Z,14.02
2023-10-04T14:48:00.531Z,14.45
2023-10-04T14:53:02.835Z,14.57
2023-10-04T14:58:05.007Z,14.55
2023-10-04T15:03:07.177Z,14.95
2023-10-04T15:08:10.202Z,14.27
2023-10-04T15:13:12.110Z,14.23
2023-10-04T15:18:14.012Z,14.85
2023-10-04T15:23:17.371Z,14.10
2023-10-04T15:28:19.328Z,13.40
2023-10-04T15:33:21.423Z,14.00
2023-10-04T15:38:23.249Z,14.30
2023-10-04T15:43:25.070Z,14.10
2023-10-04T15:48:27.569Z,13.57
2023-10-04T15:53:29.952Z,14.57
2023-10-04T15:58:32.969Z,14.18
2023-10-04T16:03:36.463Z,14.15
2023-10-04T16:08:38.498Z,13.82
2023-10-04T16:13:40.455Z,13.75
2023-10-04T16:18:42.490Z,14.70
2023-10-04T16:23:44.425Z,14.10
2023-10-04T16:28:46.666Z,13.57
2023-10-04T16:33:48.549Z,13.25
2023-10-04T16:38:50.553Z,12.43
2023-10-04T16:43:52.521Z,12.35
2023-10-04T16:48:56.697Z,12.68
2023-10-04T16:53:58.880Z,12.48
2023-10-04T16:59:02.245Z,13.57
2023-10-04T17:04:05.727Z,12.88
2023-10-04T17:09:07.845Z,12.98
2023-10-04T17:14:10.105Z,12.73
2023-10-04T17:19:13.179Z,12.48
2023-10-04T17:24:15.009Z,11.95
2023-10-04T17:29:17.268Z,12.90
2023-10-04T17:34:19.221Z,12.52
2023-10-04T17:39:21.144Z,12.68
2023-10-04T17:44:23.056Z,15.07
2023-10-04T17:49:25.421Z,14.63
2023-10-04T17:54:27.411Z,12.85
2023-10-04T17:59:29.273Z,11.15
2023-10-04T18:04:31.377Z,11.98
2023-10-04T18:09:33.525Z,11.25
2023-10-04T18:14:35.420Z,11.30
2023-10-04T18:19:37.487Z,10.55
2023-10-04T18:24:39.544Z,10.48
2023-10-04T18:29:41.580Z,10.70
2023-10-04T18:34:43.427Z,10.57
2023-10-04T18:39:45.318Z,10.90
2023-10-04T18:44:47.426Z,10.25
2023-10-04T18:49:49.727Z,11.02
2023-10-04T18:54:51.732Z,10.75
2023-10-04T18:59:55.185Z,9.85
2023-10-04T19:05:05.471Z,10.45
2023-10-04T19:10:11.359Z,10.40
2023-10-04T19:15:16.065Z,9.60
2023-10-04T19:20:20.874Z,10.45
2023-10-04T19:25:22.765Z,10.40
2023-10-04T19:30:25.649Z,10.35
2023-10-04T19:35:27.633Z,9.90
2023-10-04T19:40:29.519Z,10.00
2023-10-04T19:45:32.390Z,9.30
2023-10-04T19:50:34.727Z,9.90
2023-10-04T19:55:37.563Z,9.52
2023-10-04T20:00:43.679Z,9.88
2023-10-04T20:05:46.456Z,9.55
2023-10-04T20:10:49.137Z,9.30
2023-10-04T20:15:51.253Z,8.85
2023-10-04T20:20:57.858Z,8.70
2023-10-04T20:26:00.445Z,8.52
2023-10-04T20:31:05.315Z,9.45
2023-10-04T20:36:07.392Z,8.80
2023-10-04T20:41:09.263Z,9.18
2023-10-04T20:46:11.839Z,8.32
2023-10-04T20:51:13.775Z,8.60
2023-10-04T20:56:15.674Z,8.82
2023-10-04T21:01:18.157Z,8.75
2023-10-04T21:06:20.274Z,8.50
2023-10-04T21:11:22.205Z,9.13
2023-10-04T21:16:24.240Z,8.40
2023-10-04T21:21:26.163Z,9.18
2023-10-04T21:26:28.113Z,8.50
2023-10-04T21:31:30.644Z,8.32
2023-10-04T21:36:32.905Z,8.48
2023-10-04T21:41:42.821Z,8.65
2023-10-04T21:46:45.723Z,8.82
2023-10-04T21:52:05.679Z,9.55
2023-10-04T21:57:08.678Z,9.40
2023-10-04T22:02:14.107Z,9.10
2023-10-04T22:07:22.134Z,9.15
2023-10-04T22:12:25.665Z,9.27
2023-10-04T22:17:27.537Z,8.00
2023-10-04T22:22:29.401Z,8.27
2023-10-04T22:27:31.624Z,8.25
2023-10-04T22:32:33.770Z,8.43
2023-10-04T22:37:35.625Z,9.18
2023-10-04T22:42:38.645Z,9.18
2023-10-04T22:47:41.344Z,8.50
2023-10-04T22:52:44.396Z,8.65
2023-10-04T22:57:47.197Z,9.00
2023-10-04T23:02:50.081Z,9.30
2023-10-04T23:07:52.936Z,8.10
2023-10-04T23:12:58.528Z,8.80
2023-10-04T23:18:14.888Z,9.05
2023-10-04T23:23:16.930Z,8.50
2023-10-04T23:28:19.318Z,8.95
2023-10-04T23:33:21.679Z,7.97
2023-10-04T23:38:32.618Z,8.98
2023-10-04T23:43:40.627Z,9.13
2023-10-04T23:48:42.702Z,7.97
2023-10-04T23:53:45.507Z,9.00
2023-10-04T23:58:48.284Z,8.02
